Kresgeville, PA

5:11 PM EDT on August 21, 2019 (GMT -0400)
Kresgeville | | Change Station
Active Advisory: Severe Thunderstorm Watch

Elev 886 ft 40.90 °N, 75.52 °W | Updated 4 seconds ago

Partly Cloudy
Partly Cloudy
84 °F
Feels Like 88 °F
N
0
Wind Variable Wind from SSW
Gusts 0.0 mph

Today
High -- | Low -- °F
--% Chance of Precip.
Yesterday
High -- | Low -- °F
Precip. -- in
Pressure 29.85 in
Visibility 10.0 miles
Clouds Few 4200 ft
Heat Index 88 °F
Dew Point 70 °F
Humidity 62%
Rainfall 0.02 in
Snow Depth Not available.
6:17 AM 7:51 PM
Waning Gibbous, 67% visible
METAR KABE 212051Z 23010KT 10SM FEW042 31/21 A2986 RMK AO2 LTG DSNT E AND S SLP108 T03060211 56010
Pressure 29.85 in
Visibility 10.0 miles
Clouds Few 4200 ft
Heat Index 88 °F
Dew Point 70 °F
Humidity 62%
Rainfall 0.02 in
Snow Depth Not available.
6:17 AM 7:51 PM
Waning Gibbous, 67% visible
METAR KABE 212051Z 23010KT 10SM FEW042 31/21 A2986 RMK AO2 LTG DSNT E AND S SLP108 T03060211 56010

Get Your Daily Forecast Email!

Thanks for signing up!

Be on the lookout for a verification email in your inbox.

You'll start receiving severe weather alerts in your inbox..

×

10-Day Weather Forecast

Almanac

Astronomy

Aug. 21, 2019 Rise Set
Actual Time
Civil Twilight
Nautical Twilight
Astronomical Twilight
Moon
Length of Visible Light
Length of Day
Tomorrow will be .
, % of the Moon is Illuminated

Today's Extremes

State Highs State Lows

Community

WunderPhotos

Category 6

Welcome to Category 6. This is the collective home for Weather Underground's featured writeups by Dr. Jeff Masters (right), Bob Henson (left), Chris Burt, and other regular contributors.

Nearby

Air Quality

  Air Quality AQ Index Pollutant
Not available.

Snow Depth

Station Depth Elevation

Earthquake Activity

City Distance Mag. Time & Date
Minimum magnitude displayed is 2.5.

Coastal Water Temperatures

Place Temperature

Stations

Nearby Weather Stations

Station Location Temp. Windchill Dew Point Humidity Wind Precip. Elev Updated Type
                   

Watches & Warnings

Severe Thunderstorm Watch
Issued: 4:53 PM EDT Aug. 21, 2019 – National Weather Service

Severe Thunderstorm Watch 610 remains in effect until 1000 PM EDT

PA
. Pennsylvania counties included are

Adams Berks Bucks
Carbon Chester Dauphin
Delaware Lancaster Lebanon
Lehigh Monroe Montgomery
Northampton Philadelphia Schuylkill
York